sensor_id;sensor_type;location;lat;lon;timestamp;P1;durP1;ratioP1;P2;durP2;ratioP2
52978;SDS011;63430;53.186;6.598;2022-12-07T00:00:53;6.38;;;5.82;;
52978;SDS011;63430;53.186;6.598;2022-12-07T00:02:58;5.93;;;5.57;;
52978;SDS011;63430;53.186;6.598;2022-12-07T00:05:01;13.15;;;5.78;;
52978;SDS011;63430;53.186;6.598;2022-12-07T00:07:03;6.57;;;5.95;;
52978;SDS011;63430;53.186;6.598;2022-12-07T00:09:06;7.35;;;5.78;;
52978;SDS011;63430;53.186;6.598;2022-12-07T00:11:15;12.70;;;6.03;;
52978;SDS011;63430;53.186;6.598;2022-12-07T00:13:19;11.93;;;6.22;;
52978;SDS011;63430;53.186;6.598;2022-12-07T00:15:21;5.88;;;5.35;;
52978;SDS011;63430;53.186;6.598;2022-12-07T00:17:24;10.10;;;6.20;;
52978;SDS011;63430;53.186;6.598;2022-12-07T00:19:26;12.20;;;6.07;;
52978;SDS011;63430;53.186;6.598;2022-12-07T00:21:29;12.25;;;6.45;;
52978;SDS011;63430;53.186;6.598;2022-12-07T00:23:33;9.27;;;6.30;;
52978;SDS011;63430;53.186;6.598;2022-12-07T00:25:35;9.02;;;6.70;;
52978;SDS011;63430;53.186;6.598;2022-12-07T00:27:40;9.27;;;5.97;;
52978;SDS011;63430;53.186;6.598;2022-12-07T00:29:43;6.00;;;5.60;;
52978;SDS011;63430;53.186;6.598;2022-12-07T00:31:46;11.38;;;5.97;;
52978;SDS011;63430;53.186;6.598;2022-12-07T00:33:49;6.90;;;5.75;;
52978;SDS011;63430;53.186;6.598;2022-12-07T00:35:54;7.05;;;6.07;;
52978;SDS011;63430;53.186;6.598;2022-12-07T00:37:57;8.32;;;6.43;;
52978;SDS011;63430;53.186;6.598;2022-12-07T00:40:00;7.28;;;5.53;;
52978;SDS011;63430;53.186;6.598;2022-12-07T00:42:03;6.18;;;5.78;;
52978;SDS011;63430;53.186;6.598;2022-12-07T00:44:08;7.28;;;6.05;;
52978;SDS011;63430;53.186;6.598;2022-12-07T00:46:11;6.57;;;6.05;;
52978;SDS011;63430;53.186;6.598;2022-12-07T00:48:14;8.38;;;6.20;;
52978;SDS011;63430;53.186;6.598;2022-12-07T00:50:17;7.10;;;6.30;;
52978;SDS011;63430;53.186;6.598;2022-12-07T00:52:19;7.40;;;5.30;;
52978;SDS011;63430;53.186;6.598;2022-12-07T00:54:22;6.70;;;6.10;;
52978;SDS011;63430;53.186;6.598;2022-12-07T00:56:25;6.35;;;5.30;;
52978;SDS011;63430;53.186;6.598;2022-12-07T01:00:33;5.22;;;4.70;;
52978;SDS011;63430;53.186;6.598;2022-12-07T01:02:38;6.53;;;5.32;;
52978;SDS011;63430;53.186;6.598;2022-12-07T01:04:43;5.35;;;4.97;;
52978;SDS011;63430;53.186;6.598;2022-12-07T01:06:46;6.25;;;5.53;;
52978;SDS011;63430;53.186;6.598;2022-12-07T01:08:48;6.93;;;5.18;;
52978;SDS011;63430;53.186;6.598;2022-12-07T01:10:57;6.15;;;4.95;;
52978;SDS011;63430;53.186;6.598;2022-12-07T01:13:01;8.00;;;5.25;;
52978;SDS011;63430;53.186;6.598;2022-12-07T01:15:04;5.82;;;5.32;;
52978;SDS011;63430;53.186;6.598;2022-12-07T01:17:11;6.28;;;4.97;;
52978;SDS011;63430;53.186;6.598;2022-12-07T01:19:14;6.75;;;5.50;;
52978;SDS011;63430;53.186;6.598;2022-12-07T01:21:17;5.75;;;5.13;;
52978;SDS011;63430;53.186;6.598;2022-12-07T01:23:23;11.13;;;5.57;;
52978;SDS011;63430;53.186;6.598;2022-12-07T01:25:25;6.90;;;5.30;;
52978;SDS011;63430;53.186;6.598;2022-12-07T01:27:27;5.63;;;5.10;;
52978;SDS011;63430;53.186;6.598;2022-12-07T01:29:33;5.80;;;5.30;;
52978;SDS011;63430;53.186;6.598;2022-12-07T01:31:36;5.60;;;5.07;;
52978;SDS011;63430;53.186;6.598;2022-12-07T01:33:43;5.70;;;5.20;;
52978;SDS011;63430;53.186;6.598;2022-12-07T01:35:47;6.80;;;5.00;;
52978;SDS011;63430;53.186;6.598;2022-12-07T01:37:49;9.93;;;5.95;;
52978;SDS011;63430;53.186;6.598;2022-12-07T01:39:52;6.47;;;5.32;;
52978;SDS011;63430;53.186;6.598;2022-12-07T01:41:56;5.93;;;5.40;;
52978;SDS011;63430;53.186;6.598;2022-12-07T01:44:07;6.50;;;5.10;;
52978;SDS011;63430;53.186;6.598;2022-12-07T01:46:18;7.45;;;5.50;;
52978;SDS011;63430;53.186;6.598;2022-12-07T01:48:22;5.57;;;5.18;;
52978;SDS011;63430;53.186;6.598;2022-12-07T01:50:30;5.93;;;5.45;;
52978;SDS011;63430;53.186;6.598;2022-12-07T01:52:35;6.25;;;4.90;;
52978;SDS011;63430;53.186;6.598;2022-12-07T01:54:40;7.20;;;5.78;;
52978;SDS011;63430;53.186;6.598;2022-12-07T01:56:45;7.73;;;5.83;;
52978;SDS011;63430;53.186;6.598;2022-12-07T01:58:52;5.70;;;5.30;;
52978;SDS011;63430;53.186;6.598;2022-12-07T02:00:58;6.10;;;5.70;;
52978;SDS011;63430;53.186;6.598;2022-12-07T02:03:02;9.32;;;6.18;;
52978;SDS011;63430;53.186;6.598;2022-12-07T02:05:08;11.40;;;6.18;;
52978;SDS011;63430;53.186;6.598;2022-12-07T02:07:15;6.30;;;5.90;;
52978;SDS011;63430;53.186;6.598;2022-12-07T02:09:18;6.18;;;5.68;;
52978;SDS011;63430;53.186;6.598;2022-12-07T02:11:20;7.32;;;6.07;;
52978;SDS011;63430;53.186;6.598;2022-12-07T02:13:24;8.80;;;6.05;;
52978;SDS011;63430;53.186;6.598;2022-12-07T02:15:33;6.50;;;5.90;;
52978;SDS011;63430;53.186;6.598;2022-12-07T02:17:45;7.50;;;6.10;;
52978;SDS011;63430;53.186;6.598;2022-12-07T02:22:27;7.00;;;6.22;;
52978;SDS011;63430;53.186;6.598;2022-12-07T02:25:04;7.93;;;5.80;;
52978;SDS011;63430;53.186;6.598;2022-12-07T02:27:19;6.30;;;5.80;;
52978;SDS011;63430;53.186;6.598;2022-12-07T02:29:43;6.65;;;5.38;;
52978;SDS011;63430;53.186;6.598;2022-12-07T02:31:54;6.47;;;5.85;;
52978;SDS011;63430;53.186;6.598;2022-12-07T02:34:03;6.60;;;6.10;;
52978;SDS011;63430;53.186;6.598;2022-12-07T02:36:12;7.40;;;6.03;;
52978;SDS011;63430;53.186;6.598;2022-12-07T02:38:20;9.18;;;6.15;;
52978;SDS011;63430;53.186;6.598;2022-12-07T02:40:31;7.78;;;5.60;;
52978;SDS011;63430;53.186;6.598;2022-12-07T02:42:38;6.30;;;5.90;;
52978;SDS011;63430;53.186;6.598;2022-12-07T02:44:46;8.65;;;5.88;;
52978;SDS011;63430;53.186;6.598;2022-12-07T02:46:51;9.95;;;5.47;;
52978;SDS011;63430;53.186;6.598;2022-12-07T02:48:56;10.88;;;5.93;;
52978;SDS011;63430;53.186;6.598;2022-12-07T02:51:20;8.27;;;6.15;;
52978;SDS011;63430;53.186;6.598;2022-12-07T02:53:29;12.43;;;5.72;;
52978;SDS011;63430;53.186;6.598;2022-12-07T02:55:36;12.60;;;5.40;;
52978;SDS011;63430;53.186;6.598;2022-12-07T02:57:46;6.68;;;4.70;;
52978;SDS011;63430;53.186;6.598;2022-12-07T03:00:03;5.25;;;4.93;;
52978;SDS011;63430;53.186;6.598;2022-12-07T03:02:10;11.25;;;5.50;;
52978;SDS011;63430;53.186;6.598;2022-12-07T03:04:27;9.15;;;5.53;;
52978;SDS011;63430;53.186;6.598;2022-12-07T03:06:40;5.18;;;4.80;;
52978;SDS011;63430;53.186;6.598;2022-12-07T03:08:50;8.52;;;5.07;;
52978;SDS011;63430;53.186;6.598;2022-12-07T03:11:02;5.55;;;5.10;;
52978;SDS011;63430;53.186;6.598;2022-12-07T03:13:08;6.15;;;5.10;;
52978;SDS011;63430;53.186;6.598;2022-12-07T03:15:18;5.32;;;4.80;;
52978;SDS011;63430;53.186;6.598;2022-12-07T03:17:28;6.22;;;5.18;;
52978;SDS011;63430;53.186;6.598;2022-12-07T03:19:34;6.90;;;5.10;;
52978;SDS011;63430;53.186;6.598;2022-12-07T03:21:41;7.05;;;5.20;;
52978;SDS011;63430;53.186;6.598;2022-12-07T03:23:48;5.63;;;5.15;;
52978;SDS011;63430;53.186;6.598;2022-12-07T03:25:55;5.03;;;4.57;;
52978;SDS011;63430;53.186;6.598;2022-12-07T03:28:02;5.53;;;4.50;;
52978;SDS011;63430;53.186;6.598;2022-12-07T03:30:10;4.93;;;4.63;;
52978;SDS011;63430;53.186;6.598;2022-12-07T03:32:21;8.38;;;5.47;;
52978;SDS011;63430;53.186;6.598;2022-12-07T03:34:31;7.65;;;5.53;;
52978;SDS011;63430;53.186;6.598;2022-12-07T03:36:39;6.03;;;5.20;;
52978;SDS011;63430;53.186;6.598;2022-12-07T03:38:48;5.85;;;5.35;;
52978;SDS011;63430;53.186;6.598;2022-12-07T03:40:58;5.35;;;4.90;;
52978;SDS011;63430;53.186;6.598;2022-12-07T03:43:03;6.28;;;5.25;;
52978;SDS011;63430;53.186;6.598;2022-12-07T03:45:07;6.13;;;5.55;;
52978;SDS011;63430;53.186;6.598;2022-12-07T03:47:12;7.07;;;4.95;;
52978;SDS011;63430;53.186;6.598;2022-12-07T03:49:23;16.67;;;5.30;;
52978;SDS011;63430;53.186;6.598;2022-12-07T03:51:31;8.27;;;5.30;;
52978;SDS011;63430;53.186;6.598;2022-12-07T03:53:41;8.00;;;5.25;;
52978;SDS011;63430;53.186;6.598;2022-12-07T03:55:48;6.45;;;4.93;;
52978;SDS011;63430;53.186;6.598;2022-12-07T03:57:55;6.93;;;4.85;;
52978;SDS011;63430;53.186;6.598;2022-12-07T04:00:01;5.22;;;4.82;;
52978;SDS011;63430;53.186;6.598;2022-12-07T04:02:12;5.25;;;4.85;;
52978;SDS011;63430;53.186;6.598;2022-12-07T04:04:16;5.13;;;4.82;;
52978;SDS011;63430;53.186;6.598;2022-12-07T04:06:21;5.07;;;4.65;;
52978;SDS011;63430;53.186;6.598;2022-12-07T04:08:24;6.00;;;4.60;;
52978;SDS011;63430;53.186;6.598;2022-12-07T04:10:26;6.07;;;5.28;;
52978;SDS011;63430;53.186;6.598;2022-12-07T04:12:29;14.98;;;6.18;;
52978;SDS011;63430;53.186;6.598;2022-12-07T04:14:33;5.75;;;5.35;;
52978;SDS011;63430;53.186;6.598;2022-12-07T04:16:35;5.20;;;4.78;;
52978;SDS011;63430;53.186;6.598;2022-12-07T04:18:45;4.90;;;4.55;;
52978;SDS011;63430;53.186;6.598;2022-12-07T04:20:47;6.85;;;5.10;;
52978;SDS011;63430;53.186;6.598;2022-12-07T04:22:53;5.57;;;4.90;;
52978;SDS011;63430;53.186;6.598;2022-12-07T04:24:55;5.60;;;5.00;;
52978;SDS011;63430;53.186;6.598;2022-12-07T04:26:57;7.07;;;4.85;;
52978;SDS011;63430;53.186;6.598;2022-12-07T04:29:00;5.07;;;4.70;;
52978;SDS011;63430;53.186;6.598;2022-12-07T04:31:08;4.93;;;4.63;;
52978;SDS011;63430;53.186;6.598;2022-12-07T04:33:10;8.27;;;5.22;;
52978;SDS011;63430;53.186;6.598;2022-12-07T04:35:13;9.40;;;4.95;;
52978;SDS011;63430;53.186;6.598;2022-12-07T04:37:16;6.38;;;5.00;;
52978;SDS011;63430;53.186;6.598;2022-12-07T04:39:22;5.05;;;4.60;;
52978;SDS011;63430;53.186;6.598;2022-12-07T04:41:26;14.93;;;5.53;;
52978;SDS011;63430;53.186;6.598;2022-12-07T04:43:31;6.05;;;5.10;;
52978;SDS011;63430;53.186;6.598;2022-12-07T04:45:34;5.22;;;4.78;;
52978;SDS011;63430;53.186;6.598;2022-12-07T04:47:36;5.63;;;5.18;;
52978;SDS011;63430;53.186;6.598;2022-12-07T04:49:39;4.95;;;4.60;;
52978;SDS011;63430;53.186;6.598;2022-12-07T04:51:43;8.60;;;4.90;;
52978;SDS011;63430;53.186;6.598;2022-12-07T04:53:45;5.05;;;4.70;;
52978;SDS011;63430;53.186;6.598;2022-12-07T04:55:51;6.28;;;5.05;;
52978;SDS011;63430;53.186;6.598;2022-12-07T04:57:53;6.63;;;4.80;;
52978;SDS011;63430;53.186;6.598;2022-12-07T04:59:55;7.28;;;4.85;;
52978;SDS011;63430;53.186;6.598;2022-12-07T05:01:58;11.48;;;5.10;;
52978;SDS011;63430;53.186;6.598;2022-12-07T05:04:02;5.40;;;5.00;;
52978;SDS011;63430;53.186;6.598;2022-12-07T05:06:05;6.63;;;5.03;;
52978;SDS011;63430;53.186;6.598;2022-12-07T05:08:14;8.15;;;5.30;;
52978;SDS011;63430;53.186;6.598;2022-12-07T05:10:16;8.43;;;4.57;;
52978;SDS011;63430;53.186;6.598;2022-12-07T05:12:21;5.45;;;4.80;;
52978;SDS011;63430;53.186;6.598;2022-12-07T05:14:24;6.95;;;4.80;;
52978;SDS011;63430;53.186;6.598;2022-12-07T05:16:26;7.18;;;4.78;;
52978;SDS011;63430;53.186;6.598;2022-12-07T05:18:29;7.88;;;4.50;;
52978;SDS011;63430;53.186;6.598;2022-12-07T05:20:32;5.30;;;4.63;;
52978;SDS011;63430;53.186;6.598;2022-12-07T05:22:42;5.18;;;4.88;;
52978;SDS011;63430;53.186;6.598;2022-12-07T05:24:45;5.47;;;4.97;;
52978;SDS011;63430;53.186;6.598;2022-12-07T05:26:47;7.80;;;4.80;;
52978;SDS011;63430;53.186;6.598;2022-12-07T05:28:53;6.13;;;5.18;;
52978;SDS011;63430;53.186;6.598;2022-12-07T05:30:56;5.80;;;5.20;;
52978;SDS011;63430;53.186;6.598;2022-12-07T05:33:00;5.78;;;5.22;;
52978;SDS011;63430;53.186;6.598;2022-12-07T05:35:06;5.80;;;5.30;;
52978;SDS011;63430;53.186;6.598;2022-12-07T05:37:12;6.60;;;4.80;;
52978;SDS011;63430;53.186;6.598;2022-12-07T05:39:14;6.43;;;5.22;;
52978;SDS011;63430;53.186;6.598;2022-12-07T05:41:17;5.22;;;4.93;;
52978;SDS011;63430;53.186;6.598;2022-12-07T05:43:39;5.80;;;5.32;;
52978;SDS011;63430;53.186;6.598;2022-12-07T05:45:45;7.65;;;5.47;;
52978;SDS011;63430;53.186;6.598;2022-12-07T05:47:47;6.53;;;5.30;;
52978;SDS011;63430;53.186;6.598;2022-12-07T05:49:50;6.75;;;5.40;;
52978;SDS011;63430;53.186;6.598;2022-12-07T05:51:52;6.60;;;5.47;;
52978;SDS011;63430;53.186;6.598;2022-12-07T05:53:55;6.13;;;5.60;;
52978;SDS011;63430;53.186;6.598;2022-12-07T05:55:57;7.78;;;5.00;;
52978;SDS011;63430;53.186;6.598;2022-12-07T05:58:00;5.32;;;4.93;;
52978;SDS011;63430;53.186;6.598;2022-12-07T06:00:21;5.78;;;5.30;;
52978;SDS011;63430;53.186;6.598;2022-12-07T06:02:26;8.32;;;4.80;;
52978;SDS011;63430;53.186;6.598;2022-12-07T06:04:30;4.90;;;4.60;;
52978;SDS011;63430;53.186;6.598;2022-12-07T06:06:34;6.43;;;5.45;;
52978;SDS011;63430;53.186;6.598;2022-12-07T06:08:36;5.10;;;4.80;;
52978;SDS011;63430;53.186;6.598;2022-12-07T06:10:38;5.43;;;4.93;;
52978;SDS011;63430;53.186;6.598;2022-12-07T06:12:41;7.13;;;5.22;;
52978;SDS011;63430;53.186;6.598;2022-12-07T06:14:44;5.90;;;5.40;;
52978;SDS011;63430;53.186;6.598;2022-12-07T06:16:47;6.07;;;5.30;;
52978;SDS011;63430;53.186;6.598;2022-12-07T06:18:55;7.03;;;5.13;;
52978;SDS011;63430;53.186;6.598;2022-12-07T06:20:57;6.85;;;6.05;;
52978;SDS011;63430;53.186;6.598;2022-12-07T06:23:02;13.00;;;5.55;;
52978;SDS011;63430;53.186;6.598;2022-12-07T06:25:05;5.90;;;5.38;;
52978;SDS011;63430;53.186;6.598;2022-12-07T06:27:09;5.45;;;5.10;;
52978;SDS011;63430;53.186;6.598;2022-12-07T06:29:12;5.63;;;5.22;;
52978;SDS011;63430;53.186;6.598;2022-12-07T06:31:17;6.22;;;5.15;;
52978;SDS011;63430;53.186;6.598;2022-12-07T06:33:19;5.88;;;5.28;;
52978;SDS011;63430;53.186;6.598;2022-12-07T06:35:24;15.52;;;5.05;;
52978;SDS011;63430;53.186;6.598;2022-12-07T06:37:28;6.75;;;5.30;;
52978;SDS011;63430;53.186;6.598;2022-12-07T06:39:30;10.43;;;5.50;;
52978;SDS011;63430;53.186;6.598;2022-12-07T06:41:34;4.88;;;4.57;;
52978;SDS011;63430;53.186;6.598;2022-12-07T06:43:38;8.75;;;5.30;;
52978;SDS011;63430;53.186;6.598;2022-12-07T06:45:40;9.10;;;5.00;;
52978;SDS011;63430;53.186;6.598;2022-12-07T06:47:45;5.10;;;4.70;;
52978;SDS011;63430;53.186;6.598;2022-12-07T06:50:07;7.05;;;4.97;;
52978;SDS011;63430;53.186;6.598;2022-12-07T06:52:12;5.90;;;4.90;;
52978;SDS011;63430;53.186;6.598;2022-12-07T06:54:16;7.95;;;5.10;;
52978;SDS011;63430;53.186;6.598;2022-12-07T06:56:18;8.40;;;5.03;;
52978;SDS011;63430;53.186;6.598;2022-12-07T06:58:21;5.60;;;4.68;;
52978;SDS011;63430;53.186;6.598;2022-12-07T07:00:23;7.32;;;5.05;;
52978;SDS011;63430;53.186;6.598;2022-12-07T07:02:26;7.45;;;5.05;;
52978;SDS011;63430;53.186;6.598;2022-12-07T07:04:29;4.90;;;4.47;;
52978;SDS011;63430;53.186;6.598;2022-12-07T07:06:31;5.70;;;4.88;;
52978;SDS011;63430;53.186;6.598;2022-12-07T07:08:37;5.50;;;5.10;;
52978;SDS011;63430;53.186;6.598;2022-12-07T07:10:40;8.90;;;4.80;;
52978;SDS011;63430;53.186;6.598;2022-12-07T07:12:43;5.68;;;5.10;;
52978;SDS011;63430;53.186;6.598;2022-12-07T07:14:45;6.97;;;5.47;;
52978;SDS011;63430;53.186;6.598;2022-12-07T07:16:48;5.72;;;5.22;;
52978;SDS011;63430;53.186;6.598;2022-12-07T07:18:51;4.78;;;4.47;;
52978;SDS011;63430;53.186;6.598;2022-12-07T07:20:53;10.40;;;5.30;;
52978;SDS011;63430;53.186;6.598;2022-12-07T07:22:56;9.45;;;6.38;;
52978;SDS011;63430;53.186;6.598;2022-12-07T07:25:02;6.00;;;5.60;;
52978;SDS011;63430;53.186;6.598;2022-12-07T07:27:04;7.95;;;5.20;;
52978;SDS011;63430;53.186;6.598;2022-12-07T07:29:07;7.07;;;6.55;;
52978;SDS011;63430;53.186;6.598;2022-12-07T07:31:09;10.85;;;5.60;;
52978;SDS011;63430;53.186;6.598;2022-12-07T07:33:12;8.82;;;5.40;;
52978;SDS011;63430;53.186;6.598;2022-12-07T07:35:15;6.32;;;5.20;;
52978;SDS011;63430;53.186;6.598;2022-12-07T07:37:17;4.90;;;4.60;;
52978;SDS011;63430;53.186;6.598;2022-12-07T07:39:23;8.00;;;5.43;;
52978;SDS011;63430;53.186;6.598;2022-12-07T07:41:28;5.65;;;5.25;;
52978;SDS011;63430;53.186;6.598;2022-12-07T07:43:30;6.93;;;4.82;;
52978;SDS011;63430;53.186;6.598;2022-12-07T07:45:34;5.38;;;4.90;;
52978;SDS011;63430;53.186;6.598;2022-12-07T07:47:38;7.45;;;5.18;;
52978;SDS011;63430;53.186;6.598;2022-12-07T07:49:40;5.10;;;4.80;;
52978;SDS011;63430;53.186;6.598;2022-12-07T07:51:48;6.68;;;4.55;;
52978;SDS011;63430;53.186;6.598;2022-12-07T07:53:51;10.30;;;4.90;;
52978;SDS011;63430;53.186;6.598;2022-12-07T07:55:53;10.68;;;7.18;;
52978;SDS011;63430;53.186;6.598;2022-12-07T07:57:58;6.18;;;5.60;;
52978;SDS011;63430;53.186;6.598;2022-12-07T08:00:01;5.90;;;4.90;;
52978;SDS011;63430;53.186;6.598;2022-12-07T08:02:13;5.35;;;4.88;;
52978;SDS011;63430;53.186;6.598;2022-12-07T08:06:19;9.65;;;5.05;;
52978;SDS011;63430;53.186;6.598;2022-12-07T08:08:21;6.13;;;5.45;;
52978;SDS011;63430;53.186;6.598;2022-12-07T08:10:24;6.10;;;5.47;;
52978;SDS011;63430;53.186;6.598;2022-12-07T08:12:26;8.63;;;5.78;;
52978;SDS011;63430;53.186;6.598;2022-12-07T08:14:31;5.60;;;5.20;;
52978;SDS011;63430;53.186;6.598;2022-12-07T08:16:34;9.55;;;5.97;;
52978;SDS011;63430;53.186;6.598;2022-12-07T08:18:37;6.63;;;5.40;;
52978;SDS011;63430;53.186;6.598;2022-12-07T08:20:40;8.02;;;5.50;;
52978;SDS011;63430;53.186;6.598;2022-12-07T08:22:43;6.43;;;5.75;;
52978;SDS011;63430;53.186;6.598;2022-12-07T08:24:46;5.40;;;5.00;;
52978;SDS011;63430;53.186;6.598;2022-12-07T08:26:48;5.68;;;5.18;;
52978;SDS011;63430;53.186;6.598;2022-12-07T08:28:52;6.43;;;5.93;;
52978;SDS011;63430;53.186;6.598;2022-12-07T08:31:01;12.45;;;6.28;;
52978;SDS011;63430;53.186;6.598;2022-12-07T08:33:04;10.07;;;6.15;;
52978;SDS011;63430;53.186;6.598;2022-12-07T08:35:07;7.90;;;5.30;;
52978;SDS011;63430;53.186;6.598;2022-12-07T08:37:10;5.90;;;5.40;;
52978;SDS011;63430;53.186;6.598;2022-12-07T08:39:12;9.00;;;5.57;;
52978;SDS011;63430;53.186;6.598;2022-12-07T08:41:34;11.32;;;6.70;;
52978;SDS011;63430;53.186;6.598;2022-12-07T08:43:36;6.00;;;5.47;;
52978;SDS011;63430;53.186;6.598;2022-12-07T08:45:41;7.22;;;5.38;;
52978;SDS011;63430;53.186;6.598;2022-12-07T08:47:48;6.90;;;6.32;;
52978;SDS011;63430;53.186;6.598;2022-12-07T08:49:53;10.63;;;5.60;;
52978;SDS011;63430;53.186;6.598;2022-12-07T08:51:56;8.73;;;6.25;;
52978;SDS011;63430;53.186;6.598;2022-12-07T08:53:58;6.22;;;5.65;;
52978;SDS011;63430;53.186;6.598;2022-12-07T08:56:06;8.07;;;5.57;;
52978;SDS011;63430;53.186;6.598;2022-12-07T08:58:09;6.07;;;5.65;;
52978;SDS011;63430;53.186;6.598;2022-12-07T09:00:12;10.02;;;6.65;;
52978;SDS011;63430;53.186;6.598;2022-12-07T09:02:15;11.38;;;6.20;;
52978;SDS011;63430;53.186;6.598;2022-12-07T09:04:22;7.07;;;6.57;;
52978;SDS011;63430;53.186;6.598;2022-12-07T09:06:24;7.53;;;6.70;;
52978;SDS011;63430;53.186;6.598;2022-12-07T09:08:28;6.95;;;6.35;;
52978;SDS011;63430;53.186;6.598;2022-12-07T09:10:36;7.03;;;6.45;;
52978;SDS011;63430;53.186;6.598;2022-12-07T09:12:38;8.52;;;6.45;;
52978;SDS011;63430;53.186;6.598;2022-12-07T09:14:41;9.30;;;6.72;;
52978;SDS011;63430;53.186;6.598;2022-12-07T09:16:43;9.70;;;6.38;;
52978;SDS011;63430;53.186;6.598;2022-12-07T09:18:46;6.57;;;6.10;;
52978;SDS011;63430;53.186;6.598;2022-12-07T09:20:52;8.20;;;5.90;;
52978;SDS011;63430;53.186;6.598;2022-12-07T09:22:54;9.82;;;6.03;;
52978;SDS011;63430;53.186;6.598;2022-12-07T09:24:57;12.02;;;6.07;;
52978;SDS011;63430;53.186;6.598;2022-12-07T09:26:59;8.82;;;5.93;;
52978;SDS011;63430;53.186;6.598;2022-12-07T09:29:02;8.65;;;5.60;;
52978;SDS011;63430;53.186;6.598;2022-12-07T09:31:05;9.80;;;5.32;;
52978;SDS011;63430;53.186;6.598;2022-12-07T09:33:25;5.50;;;5.10;;
52978;SDS011;63430;53.186;6.598;2022-12-07T09:35:28;6.80;;;6.10;;
52978;SDS011;63430;53.186;6.598;2022-12-07T09:37:33;12.85;;;5.45;;
52978;SDS011;63430;53.186;6.598;2022-12-07T09:39:38;7.75;;;5.30;;
52978;SDS011;63430;53.186;6.598;2022-12-07T09:41:50;5.47;;;5.07;;
52978;SDS011;63430;53.186;6.598;2022-12-07T09:43:53;6.95;;;5.00;;
52978;SDS011;63430;53.186;6.598;2022-12-07T09:46:08;7.57;;;5.50;;
52978;SDS011;63430;53.186;6.598;2022-12-07T09:48:14;7.07;;;5.07;;
52978;SDS011;63430;53.186;6.598;2022-12-07T09:50:21;6.53;;;4.80;;
52978;SDS011;63430;53.186;6.598;2022-12-07T09:52:27;5.07;;;4.72;;
52978;SDS011;63430;53.186;6.598;2022-12-07T09:54:45;4.82;;;4.43;;
52978;SDS011;63430;53.186;6.598;2022-12-07T09:56:52;4.47;;;4.18;;
52978;SDS011;63430;53.186;6.598;2022-12-07T09:58:58;5.22;;;4.72;;
52978;SDS011;63430;53.186;6.598;2022-12-07T10:01:05;9.30;;;4.90;;
52978;SDS011;63430;53.186;6.598;2022-12-07T10:03:14;5.03;;;4.63;;
52978;SDS011;63430;53.186;6.598;2022-12-07T10:05:18;5.68;;;4.30;;
52978;SDS011;63430;53.186;6.598;2022-12-07T10:07:25;6.03;;;4.88;;
52978;SDS011;63430;53.186;6.598;2022-12-07T10:09:27;6.30;;;4.50;;
52978;SDS011;63430;53.186;6.598;2022-12-07T10:14:11;5.45;;;4.93;;
52978;SDS011;63430;53.186;6.598;2022-12-07T10:16:31;5.80;;;5.00;;
52978;SDS011;63430;53.186;6.598;2022-12-07T10:18:37;4.70;;;4.30;;
52978;SDS011;63430;53.186;6.598;2022-12-07T10:20:43;11.13;;;4.60;;
52978;SDS011;63430;53.186;6.598;2022-12-07T10:22:56;5.82;;;5.25;;
52978;SDS011;63430;53.186;6.598;2022-12-07T10:25:07;6.18;;;4.80;;
52978;SDS011;63430;53.186;6.598;2022-12-07T10:27:21;8.55;;;4.90;;
52978;SDS011;63430;53.186;6.598;2022-12-07T10:29:32;4.80;;;4.40;;
52978;SDS011;63430;53.186;6.598;2022-12-07T10:31:38;8.40;;;6.03;;
52978;SDS011;63430;53.186;6.598;2022-12-07T10:33:48;8.32;;;4.93;;
52978;SDS011;63430;53.186;6.598;2022-12-07T10:35:52;5.45;;;4.97;;
52978;SDS011;63430;53.186;6.598;2022-12-07T10:37:55;6.07;;;5.45;;
52978;SDS011;63430;53.186;6.598;2022-12-07T10:39:59;10.05;;;5.18;;
52978;SDS011;63430;53.186;6.598;2022-12-07T10:42:03;6.15;;;4.88;;
52978;SDS011;63430;53.186;6.598;2022-12-07T10:44:10;7.78;;;5.60;;
52978;SDS011;63430;53.186;6.598;2022-12-07T10:50:58;5.22;;;4.65;;
52978;SDS011;63430;53.186;6.598;2022-12-07T10:53:14;5.20;;;4.80;;
52978;SDS011;63430;53.186;6.598;2022-12-07T10:55:39;6.00;;;4.55;;
52978;SDS011;63430;53.186;6.598;2022-12-07T10:57:55;5.93;;;4.82;;
52978;SDS011;63430;53.186;6.598;2022-12-07T11:00:21;5.13;;;4.57;;
52978;SDS011;63430;53.186;6.598;2022-12-07T11:02:26;4.95;;;4.45;;
52978;SDS011;63430;53.186;6.598;2022-12-07T11:04:46;5.18;;;4.47;;
52978;SDS011;63430;53.186;6.598;2022-12-07T11:07:10;10.93;;;5.35;;
52978;SDS011;63430;53.186;6.598;2022-12-07T11:09:37;5.18;;;4.13;;
52978;SDS011;63430;53.186;6.598;2022-12-07T11:12:16;7.10;;;5.07;;
52978;SDS011;63430;53.186;6.598;2022-12-07T11:14:33;10.00;;;4.78;;
52978;SDS011;63430;53.186;6.598;2022-12-07T11:16:49;4.65;;;4.35;;
52978;SDS011;63430;53.186;6.598;2022-12-07T11:19:05;4.85;;;4.10;;
52978;SDS011;63430;53.186;6.598;2022-12-07T11:21:18;6.40;;;4.70;;
52978;SDS011;63430;53.186;6.598;2022-12-07T11:23:29;6.22;;;4.20;;
52978;SDS011;63430;53.186;6.598;2022-12-07T11:25:49;4.80;;;4.43;;
52978;SDS011;63430;53.186;6.598;2022-12-07T11:30:31;5.75;;;4.88;;
52978;SDS011;63430;53.186;6.598;2022-12-07T11:32:44;6.18;;;5.28;;
52978;SDS011;63430;53.186;6.598;2022-12-07T11:34:56;4.93;;;4.63;;
52978;SDS011;63430;53.186;6.598;2022-12-07T11:37:09;5.53;;;5.03;;
52978;SDS011;63430;53.186;6.598;2022-12-07T11:39:18;8.70;;;5.20;;
52978;SDS011;63430;53.186;6.598;2022-12-07T11:41:27;6.50;;;5.28;;
52978;SDS011;63430;53.186;6.598;2022-12-07T11:43:34;9.18;;;5.15;;
52978;SDS011;63430;53.186;6.598;2022-12-07T11:45:37;5.47;;;4.95;;
52978;SDS011;63430;53.186;6.598;2022-12-07T11:47:51;5.28;;;4.88;;
52978;SDS011;63430;53.186;6.598;2022-12-07T11:49:58;6.10;;;4.90;;
52978;SDS011;63430;53.186;6.598;2022-12-07T11:52:14;5.60;;;5.05;;
52978;SDS011;63430;53.186;6.598;2022-12-07T11:54:24;5.70;;;5.10;;
52978;SDS011;63430;53.186;6.598;2022-12-07T11:56:29;5.10;;;4.65;;
52978;SDS011;63430;53.186;6.598;2022-12-07T11:58:40;5.28;;;4.85;;
52978;SDS011;63430;53.186;6.598;2022-12-07T12:00:49;7.20;;;4.45;;
52978;SDS011;63430;53.186;6.598;2022-12-07T12:03:01;6.50;;;4.65;;
52978;SDS011;63430;53.186;6.598;2022-12-07T12:05:12;4.65;;;4.20;;
52978;SDS011;63430;53.186;6.598;2022-12-07T12:07:21;3.92;;;3.72;;
52978;SDS011;63430;53.186;6.598;2022-12-07T12:09:46;4.40;;;4.00;;
52978;SDS011;63430;53.186;6.598;2022-12-07T12:12:02;4.43;;;4.13;;
52978;SDS011;63430;53.186;6.598;2022-12-07T12:14:44;4.50;;;4.10;;
52978;SDS011;63430;53.186;6.598;2022-12-07T12:17:04;4.90;;;4.55;;
52978;SDS011;63430;53.186;6.598;2022-12-07T12:19:31;5.03;;;4.25;;
52978;SDS011;63430;53.186;6.598;2022-12-07T12:21:36;6.35;;;4.18;;
52978;SDS011;63430;53.186;6.598;2022-12-07T12:23:40;4.50;;;4.20;;
52978;SDS011;63430;53.186;6.598;2022-12-07T12:25:46;4.38;;;3.97;;
52978;SDS011;63430;53.186;6.598;2022-12-07T12:27:52;4.72;;;4.28;;
52978;SDS011;63430;53.186;6.598;2022-12-07T12:30:01;4.75;;;4.25;;
52978;SDS011;63430;53.186;6.598;2022-12-07T12:32:17;6.85;;;4.93;;
52978;SDS011;63430;53.186;6.598;2022-12-07T12:34:32;7.22;;;5.13;;
52978;SDS011;63430;53.186;6.598;2022-12-07T12:36:43;9.70;;;5.43;;
52978;SDS011;63430;53.186;6.598;2022-12-07T12:38:48;4.63;;;4.22;;
52978;SDS011;63430;53.186;6.598;2022-12-07T12:40:52;4.53;;;4.15;;
52978;SDS011;63430;53.186;6.598;2022-12-07T12:42:56;4.80;;;4.35;;
52978;SDS011;63430;53.186;6.598;2022-12-07T12:50:18;4.47;;;4.07;;
52978;SDS011;63430;53.186;6.598;2022-12-07T12:54:58;5.25;;;4.05;;
52978;SDS011;63430;53.186;6.598;2022-12-07T12:57:04;4.22;;;3.83;;
52978;SDS011;63430;53.186;6.598;2022-12-07T13:01:43;5.32;;;4.75;;
52978;SDS011;63430;53.186;6.598;2022-12-07T13:03:51;5.63;;;4.28;;
52978;SDS011;63430;53.186;6.598;2022-12-07T13:08:35;8.05;;;4.63;;
52978;SDS011;63430;53.186;6.598;2022-12-07T13:10:44;6.13;;;4.35;;